Main page
METAR-TAF:

METAR-TAF

Airports :

Turkmenbashi International Airport

Türkmenbaşy, Turkmenistan

latitude: 40-03-48N, longitude: 053-00-26E, elevation: 86 m

Current weather observation

The report was made 58 minutes ago, at 08:00 UTC
Wind 10 kt from the South
Temperature 15°C
Humidity 63%
Pressure 1026 hPa
Visibility 10 km or more
no clouds below 1500 m and no cumulonimbus

METAR: UTAK 260800Z 19010KT CAVOK 15/08 Q1026 R16R/CLRD70 NOSIG

Time: 13:58 (08:58 UTC)

Forecast

The report was made 4 hours and 28 minutes ago, at 04:30 UTC
Forecast valid from 26 at 06 UTC to 27 at 06 UTC
Wind 16 kt from the South
Visibility 10 km or more
no clouds below 1500 m and no cumulonimbus
Temporary
from 26 at 06 UTC to 26 at 09 UTC
Few clouds at a height of 800 ft
Temporary
from 26 at 12 UTC to 26 at 18 UTC
Wind 16 kt from the East/Southeast

TAF: UTAK 260430Z 2606/2706 18016KT CAVOK 530009 TEMPO 2606/2609 FEW008 TEMPO 2612/2618 12016KT

Weather observations and forecasts of more than 4000 airports (METAR and TAF reports).

The available stations are represented by yellow and red dots on the map.

Hover mouse over dot to see the name of the station.

Then click to see weather observations and forecasts.

To change the map : click on the green buttons with a black cross to zoom in, on the green button with a dash to zoom out, or on the green arrows for adjacent maps.


METAR-TAF: